createdAt,value
2022-11-02T00:01:17.321Z,52265.44
2022-11-02T00:03:47.016Z,52265.44
2022-11-02T00:06:17.023Z,52259.41
2022-11-02T00:08:46.718Z,52270.26
2022-11-02T00:11:16.355Z,52246.55
2022-11-02T00:13:46.096Z,52268.65
2022-11-02T00:16:16.000Z,52264.23
2022-11-02T00:18:45.808Z,52252.57
2022-11-02T00:21:15.792Z,52265.04
2022-11-02T00:23:45.680Z,52257.40
2022-11-02T00:26:16.106Z,52254.19
2022-11-02T00:28:46.601Z,52258.20
2022-11-02T00:31:16.639Z,52267.05
2022-11-02T00:33:46.637Z,52250.17
2022-11-02T00:36:17.515Z,52248.96
2022-11-02T00:38:47.225Z,52261.82
2022-11-02T00:41:17.129Z,52261.42
2022-11-02T00:43:46.842Z,52261.42
2022-11-02T00:46:17.816Z,52253.79
2022-11-02T00:48:47.883Z,52267.05
2022-11-02T00:51:18.068Z,52248.16
2022-11-02T00:53:48.143Z,52258.20
2022-11-02T00:56:17.901Z,52254.19
2022-11-02T00:58:47.661Z,52246.15
2022-11-02T01:01:17.588Z,52281.51
2022-11-02T01:03:47.405Z,52275.89
2022-11-02T01:06:17.130Z,52262.22
2022-11-02T01:08:47.105Z,52272.27
2022-11-02T01:11:17.437Z,52275.09
2022-11-02T01:13:47.071Z,52260.21
2022-11-02T01:16:17.023Z,52265.44
2022-11-02T01:18:47.054Z,52266.24
2022-11-02T01:21:16.852Z,52252.58
2022-11-02T01:23:46.597Z,52277.50
2022-11-02T01:26:16.491Z,52275.89
2022-11-02T01:28:46.434Z,52276.29
2022-11-02T01:31:16.387Z,52272.27
2022-11-02T01:33:46.463Z,52263.03
2022-11-02T01:36:17.067Z,52277.09
2022-11-02T01:38:46.876Z,52270.66
2022-11-02T01:41:18.497Z,52261.82
2022-11-02T01:43:48.321Z,52264.23
2022-11-02T01:46:18.567Z,52275.49
2022-11-02T01:48:49.100Z,52275.89
2022-11-02T01:51:19.911Z,52284.33
2022-11-02T01:53:51.299Z,52281.91
2022-11-02T01:58:57.645Z,52269.86
2022-11-02T02:01:27.817Z,52269.46
2022-11-02T02:03:58.104Z,52279.50
2022-11-02T02:06:29.152Z,52276.69
2022-11-02T02:08:59.397Z,52282.72
2022-11-02T02:11:33.126Z,52271.87
2022-11-02T02:14:04.084Z,52274.28
2022-11-02T02:19:28.219Z,52269.86
2022-11-02T02:22:01.261Z,52290.76
2022-11-02T02:24:38.809Z,52275.48
2022-11-02T02:27:15.658Z,52284.73
2022-11-02T02:30:02.291Z,52290.36
2022-11-02T02:32:34.924Z,52286.34
2022-11-02T02:35:06.195Z,52279.50
2022-11-02T02:37:36.907Z,52276.29
2022-11-02T02:40:07.433Z,52274.28
2022-11-02T02:42:41.094Z,52282.32
2022-11-02T02:45:13.273Z,52280.71
2022-11-02T02:47:44.626Z,52263.83
2022-11-02T02:50:15.697Z,52272.68
2022-11-02T02:52:45.728Z,52277.90
2022-11-02T02:55:16.885Z,52282.72
2022-11-02T02:57:46.927Z,52267.85
2022-11-02T03:00:17.955Z,52275.49
2022-11-02T03:03:01.425Z,52277.90
2022-11-02T03:05:32.530Z,52275.49
2022-11-02T03:08:05.159Z,52271.47
2022-11-02T03:10:36.109Z,52276.69
2022-11-02T03:13:11.506Z,52280.30
2022-11-02T03:15:42.186Z,52269.86
2022-11-02T03:18:15.572Z,52268.65
2022-11-02T03:20:47.474Z,52288.34
2022-11-02T03:23:19.722Z,52289.95
2022-11-02T03:25:52.915Z,52268.66
2022-11-02T03:28:24.633Z,52278.30
2022-11-02T03:30:57.760Z,52269.46
2022-11-02T03:33:27.763Z,52276.70
2022-11-02T03:35:58.274Z,52257.00
2022-11-02T03:38:33.053Z,52262.23
2022-11-02T03:41:03.450Z,52244.95
2022-11-02T03:43:34.082Z,52268.65
2022-11-02T03:46:04.894Z,52279.10
2022-11-02T03:48:36.525Z,52255.79
2022-11-02T03:51:07.945Z,52270.26
2022-11-02T03:53:39.441Z,52252.58
2022-11-02T03:56:10.124Z,52257.80
2022-11-02T03:58:40.702Z,52273.88
2022-11-02T04:01:10.959Z,52270.26
2022-11-02T04:03:42.387Z,52254.19
2022-11-02T04:06:15.254Z,52263.02
2022-11-02T04:08:45.533Z,52264.63
2022-11-02T04:11:32.978Z,52263.83
2022-11-02T04:14:29.678Z,52282.32
2022-11-02T04:17:13.827Z,52263.43
2022-11-02T04:19:49.715Z,52265.84
2022-11-02T04:22:37.821Z,52260.21
2022-11-02T04:25:18.765Z,52279.90
2022-11-02T04:28:17.866Z,52275.48
2022-11-02T04:31:01.241Z,52257.40
2022-11-02T04:33:34.830Z,52266.24
2022-11-02T04:36:10.697Z,52251.78
2022-11-02T04:38:42.082Z,52267.05
2022-11-02T04:41:40.047Z,52257.41
2022-11-02T04:44:14.447Z,52268.66
2022-11-02T04:46:44.643Z,52259.01
2022-11-02T04:49:15.771Z,52261.02
2022-11-02T04:51:49.740Z,52266.64
2022-11-02T04:54:21.594Z,52259.01
2022-11-02T04:56:55.798Z,52269.05
2022-11-02T04:59:26.957Z,52284.32
2022-11-02T05:01:57.228Z,52283.52
2022-11-02T05:04:27.288Z,52276.29
2022-11-02T05:07:01.449Z,52266.24
2022-11-02T05:09:33.015Z,52274.68
2022-11-02T05:12:05.347Z,52279.51
2022-11-02T05:14:35.914Z,52267.85
2022-11-02T05:17:05.727Z,52279.51
2022-11-02T05:19:35.739Z,52264.64
2022-11-02T05:22:06.062Z,52263.83
2022-11-02T05:24:36.573Z,52273.88
2022-11-02T05:27:07.680Z,52250.57
2022-11-02T05:29:38.728Z,52271.07
2022-11-02T05:32:08.903Z,52246.95
2022-11-02T05:34:41.005Z,52256.20
2022-11-02T05:37:12.425Z,52258.21
2022-11-02T05:39:44.098Z,52249.37
2022-11-02T05:42:16.431Z,52254.19
2022-11-02T05:44:46.729Z,52258.61
2022-11-02T05:47:16.811Z,52246.95
2022-11-02T05:49:46.672Z,52272.27
2022-11-02T05:52:16.516Z,52263.43
2022-11-02T05:54:46.389Z,52269.05
2022-11-02T05:57:17.406Z,52248.16
2022-11-02T05:59:49.428Z,52254.59
2022-11-02T06:02:23.275Z,52251.37
2022-11-02T06:04:55.330Z,52250.57
2022-11-02T06:07:25.383Z,52252.98
2022-11-02T06:09:55.362Z,52256.20
2022-11-02T06:12:25.470Z,52239.72
2022-11-02T06:14:55.324Z,52252.18
2022-11-02T06:17:25.323Z,52259.41
2022-11-02T06:19:55.459Z,52262.23
2022-11-02T06:22:25.530Z,52250.17
2022-11-02T06:24:55.504Z,52244.94
2022-11-02T06:27:25.860Z,52246.96
2022-11-02T06:29:55.937Z,52267.04
2022-11-02T06:32:26.085Z,52252.58
2022-11-02T06:34:56.349Z,52252.98
2022-11-02T06:37:26.230Z,52250.98
2022-11-02T06:39:56.189Z,52251.77
2022-11-02T06:42:26.009Z,52266.65
2022-11-02T06:45:02.483Z,52234.09
2022-11-02T06:47:33.661Z,52248.96
2022-11-02T06:50:03.820Z,52227.66
2022-11-02T06:52:34.006Z,52236.51
2022-11-02T06:55:04.039Z,52234.09
2022-11-02T06:57:38.687Z,52226.86
2022-11-02T07:02:44.716Z,52239.72
2022-11-02T07:05:15.364Z,52234.09
2022-11-02T07:07:45.353Z,52227.26
2022-11-02T07:10:15.481Z,52217.21
2022-11-02T07:12:46.438Z,52218.02
2022-11-02T07:15:16.629Z,52214.00
2022-11-02T07:17:46.776Z,52230.48
2022-11-02T07:20:16.875Z,52208.38
2022-11-02T07:22:53.042Z,52203.95
2022-11-02T07:25:23.169Z,52191.09
2022-11-02T07:27:53.383Z,52201.54
2022-11-02T07:30:25.395Z,52190.70
2022-11-02T07:32:55.667Z,52183.05
2022-11-02T07:35:25.590Z,52201.14
2022-11-02T07:37:58.908Z,52193.91
2022-11-02T07:40:29.582Z,52203.55
2022-11-02T07:42:59.641Z,52183.05
2022-11-02T07:45:42.017Z,52184.66
2022-11-02T07:48:12.049Z,52180.65
2022-11-02T07:50:41.805Z,52184.66
2022-11-02T07:53:11.644Z,52166.18
2022-11-02T07:55:41.566Z,52183.46
2022-11-02T07:58:13.821Z,52164.57
2022-11-02T08:00:43.653Z,52171.00
2022-11-02T08:03:15.055Z,52167.79
2022-11-02T08:05:44.899Z,52177.03
2022-11-02T08:08:15.560Z,52178.64
2022-11-02T08:10:45.391Z,52179.04
2022-11-02T08:13:15.918Z,52183.86
2022-11-02T08:15:46.197Z,52168.19
2022-11-02T08:18:16.413Z,52144.48
2022-11-02T08:20:47.672Z,52168.59
2022-11-02T08:23:17.772Z,52175.42
2022-11-02T08:25:48.321Z,52162.16
2022-11-02T08:28:19.198Z,52168.59
2022-11-02T08:30:49.410Z,52149.30
2022-11-02T08:33:19.648Z,52160.15
2022-11-02T08:35:50.266Z,52166.99
2022-11-02T08:38:22.651Z,52152.91
2022-11-02T08:40:52.745Z,52156.54
2022-11-02T08:43:22.636Z,52148.10
2022-11-02T08:48:42.659Z,52156.53
2022-11-02T08:51:12.567Z,52170.60
2022-11-02T08:53:47.096Z,52147.29
2022-11-02T08:56:20.593Z,52158.14
2022-11-02T08:58:50.774Z,52158.54
2022-11-02T09:01:20.716Z,52163.77
2022-11-02T09:03:50.657Z,52154.12
2022-11-02T09:06:20.560Z,52161.76
2022-11-02T09:08:52.799Z,52153.32
2022-11-02T09:11:26.337Z,52148.90
2022-11-02T09:13:57.215Z,52151.31
2022-11-02T09:16:27.441Z,52141.27
2022-11-02T09:18:57.399Z,52166.18
2022-11-02T09:21:28.906Z,52149.30
2022-11-02T09:23:58.916Z,52144.88
2022-11-02T09:26:29.090Z,52132.82
2022-11-02T09:28:59.426Z,52146.49
2022-11-02T09:31:30.554Z,52138.05
2022-11-02T09:34:00.299Z,52132.82
2022-11-02T09:36:30.276Z,52142.47
2022-11-02T09:39:00.168Z,52144.88
2022-11-02T09:41:31.880Z,52127.60
2022-11-02T09:44:03.909Z,52147.29
2022-11-02T09:46:34.150Z,52151.31
2022-11-02T09:49:04.820Z,52131.62
2022-11-02T09:51:36.047Z,52148.90
2022-11-02T09:54:13.110Z,52138.05
2022-11-02T09:56:46.182Z,52129.21
2022-11-02T09:59:16.733Z,52110.32
2022-11-02T10:01:55.682Z,52128.00
2022-11-02T10:04:42.032Z,52128.01
2022-11-02T10:07:14.704Z,52123.18
2022-11-02T10:09:46.355Z,52096.26
2022-11-02T10:12:16.692Z,52118.36
2022-11-02T10:14:51.414Z,52111.53
2022-11-02T10:17:22.257Z,52103.49
2022-11-02T10:19:53.801Z,52093.84
2022-11-02T10:22:23.924Z,52096.26
2022-11-02T10:24:53.946Z,52104.70
2022-11-02T10:27:26.605Z,52099.87
2022-11-02T10:29:59.444Z,52097.87
2022-11-02T10:32:29.494Z,52106.70
2022-11-02T10:35:17.591Z,52087.82
2022-11-02T10:37:53.729Z,52107.91
2022-11-02T10:40:27.563Z,52095.45
2022-11-02T10:43:01.763Z,52126.40
2022-11-02T10:45:57.354Z,52114.74
2022-11-02T10:48:31.616Z,52097.87
2022-11-02T10:51:04.816Z,52094.65
2022-11-02T10:53:41.031Z,52114.34
2022-11-02T10:56:14.558Z,52113.13
2022-11-02T10:58:47.493Z,52104.70
2022-11-02T11:01:17.569Z,52113.13
2022-11-02T11:03:57.893Z,52126.80
2022-11-02T11:06:28.394Z,52122.38
2022-11-02T11:09:01.523Z,52115.14
2022-11-02T11:11:31.882Z,52117.96
2022-11-02T11:16:54.001Z,52125.99
2022-11-02T11:19:41.117Z,52126.00
2022-11-02T11:22:30.471Z,52132.43
2022-11-02T11:25:13.998Z,52123.58
2022-11-02T11:27:46.676Z,52123.58
2022-11-02T11:30:54.072Z,52125.19
2022-11-02T11:33:17.534Z,52131.22
2022-11-02T11:35:49.245Z,52121.57
2022-11-02T11:38:19.484Z,52131.62
2022-11-02T11:40:54.074Z,52126.80
2022-11-02T11:43:24.775Z,52138.05
2022-11-02T11:46:03.749Z,52132.43
2022-11-02T11:48:37.013Z,52136.45
2022-11-02T11:51:08.879Z,52134.84
2022-11-02T11:53:39.229Z,52134.03
2022-11-02T11:56:11.710Z,52139.66
2022-11-02T11:58:42.614Z,52138.45
2022-11-02T12:01:16.988Z,52148.10
2022-11-02T12:03:54.595Z,52141.26
2022-11-02T12:06:27.170Z,52127.60
2022-11-02T12:09:03.171Z,52137.65
2022-11-02T12:11:43.932Z,52138.45
2022-11-02T12:14:17.469Z,52127.20
2022-11-02T12:16:53.911Z,52132.82
2022-11-02T12:19:29.778Z,52127.60
2022-11-02T12:22:05.063Z,52147.70
2022-11-02T12:24:38.605Z,52135.64
2022-11-02T12:27:12.295Z,52128.01
2022-11-02T12:29:50.206Z,52139.66
2022-11-02T12:32:22.721Z,52129.61
2022-11-02T12:35:15.654Z,52127.20
2022-11-02T12:37:51.983Z,52143.68
2022-11-02T12:42:57.786Z,52141.27
2022-11-02T12:45:33.198Z,52149.70
2022-11-02T12:48:06.970Z,52157.74
2022-11-02T12:50:42.370Z,52129.61
2022-11-02T12:53:17.034Z,52137.65
2022-11-02T12:55:47.724Z,52132.83
2022-11-02T12:58:19.371Z,52148.90
2022-11-02T13:00:49.553Z,52137.65
2022-11-02T13:03:22.308Z,52137.25
2022-11-02T13:05:54.427Z,52148.10
2022-11-02T13:08:25.514Z,52132.02
2022-11-02T13:10:55.874Z,52145.69
2022-11-02T13:13:28.598Z,52136.04
2022-11-02T13:16:00.031Z,52137.25
2022-11-02T13:18:30.777Z,52142.87
2022-11-02T13:21:00.613Z,52136.84
2022-11-02T13:23:32.904Z,52148.90
2022-11-02T13:26:04.038Z,52155.73
2022-11-02T13:28:35.500Z,52129.21
2022-11-02T13:31:12.615Z,52147.29
2022-11-02T13:33:45.130Z,52145.29
2022-11-02T13:36:15.416Z,52147.29
2022-11-02T13:38:46.219Z,52146.49
2022-11-02T13:41:25.793Z,52141.27
2022-11-02T13:43:58.614Z,52140.06
2022-11-02T13:46:41.767Z,52153.72
2022-11-02T13:49:15.264Z,52156.13
2022-11-02T13:51:46.389Z,52168.59
2022-11-02T13:54:17.694Z,52134.03
2022-11-02T13:56:47.544Z,52138.85
2022-11-02T13:59:21.300Z,52172.21
2022-11-02T14:01:51.236Z,52160.96
2022-11-02T14:04:21.717Z,52166.58
2022-11-02T14:06:52.483Z,52162.96
2022-11-02T14:09:27.224Z,52164.97
2022-11-02T14:12:11.796Z,52154.93
2022-11-02T14:14:41.938Z,52153.72
2022-11-02T14:17:15.446Z,52163.37
2022-11-02T14:19:55.190Z,52142.47
2022-11-02T14:22:25.000Z,52154.93
2022-11-02T14:25:05.970Z,52150.51
2022-11-02T14:27:35.967Z,52166.18
2022-11-02T14:30:06.632Z,52154.13
2022-11-02T14:32:47.012Z,52169.40
2022-11-02T14:35:19.352Z,52150.10
2022-11-02T14:37:53.533Z,52161.76
2022-11-02T14:40:26.497Z,52162.97
2022-11-02T14:43:07.603Z,52160.55
2022-11-02T14:45:53.865Z,52154.13
2022-11-02T14:48:26.302Z,52167.79
2022-11-02T14:51:00.402Z,52160.96
2022-11-02T14:53:30.374Z,52172.21
2022-11-02T14:56:00.324Z,52153.73
2022-11-02T14:58:31.694Z,52152.92
2022-11-02T15:01:02.065Z,52158.95
2022-11-02T15:03:33.666Z,52158.54
2022-11-02T15:06:04.247Z,52160.15
2022-11-02T15:08:35.867Z,52171.40
2022-11-02T15:11:19.214Z,52157.34
2022-11-02T15:13:49.564Z,52146.09
2022-11-02T15:16:24.726Z,52165.78
2022-11-02T15:18:56.244Z,52162.56
2022-11-02T15:21:29.180Z,52162.56
2022-11-02T15:24:15.721Z,52162.57
2022-11-02T15:26:51.004Z,52158.95
2022-11-02T15:29:46.379Z,52153.73
2022-11-02T15:32:22.424Z,52161.36
2022-11-02T15:34:53.007Z,52157.34
2022-11-02T15:37:23.959Z,52157.74
2022-11-02T15:39:54.198Z,52164.17
2022-11-02T15:42:26.908Z,52152.52
2022-11-02T15:45:34.061Z,52169.80
2022-11-02T15:48:09.700Z,52166.58
2022-11-02T15:50:44.500Z,52154.93
2022-11-02T15:53:24.268Z,52158.95
2022-11-02T15:55:59.607Z,52153.32
2022-11-02T15:58:34.180Z,52144.08
2022-11-02T16:01:07.929Z,52153.32
2022-11-02T16:03:37.763Z,52144.08
2022-11-02T16:06:08.093Z,52158.14
2022-11-02T16:08:39.284Z,52157.74
2022-11-02T16:11:17.697Z,52150.51
2022-11-02T16:16:37.183Z,52155.73
2022-11-02T16:19:07.146Z,52164.57
2022-11-02T16:21:37.407Z,52149.71
2022-11-02T16:24:07.658Z,52159.75
2022-11-02T16:26:37.460Z,52161.76
2022-11-02T16:29:07.547Z,52160.96
2022-11-02T16:31:37.278Z,52162.16
2022-11-02T16:34:09.380Z,52149.71
2022-11-02T16:36:39.514Z,52157.74
2022-11-02T16:39:16.959Z,52156.94
2022-11-02T16:41:49.052Z,52152.52
2022-11-02T16:44:20.007Z,52155.73
2022-11-02T16:46:53.634Z,52140.46
2022-11-02T16:49:23.647Z,52151.71
2022-11-02T16:51:53.881Z,52162.56
2022-11-02T16:54:31.173Z,52165.78
2022-11-02T16:57:04.911Z,52150.11
2022-11-02T16:59:37.726Z,52152.92
2022-11-02T17:02:10.860Z,52159.75
2022-11-02T17:04:42.418Z,52153.73
2022-11-02T17:07:13.515Z,52159.35
2022-11-02T17:09:43.707Z,52150.11
2022-11-02T17:12:14.031Z,52148.90
2022-11-02T17:14:44.133Z,52173.01
2022-11-02T17:17:27.599Z,52172.61
2022-11-02T17:19:57.623Z,52165.78
2022-11-02T17:22:27.528Z,52162.96
2022-11-02T17:25:12.212Z,52151.71
2022-11-02T17:27:42.887Z,52164.57
2022-11-02T17:30:38.642Z,52169.39
2022-11-02T17:33:11.139Z,52156.54
2022-11-02T17:35:41.140Z,52162.56
2022-11-02T17:38:11.175Z,52159.35
2022-11-02T17:40:41.225Z,52147.29
2022-11-02T17:43:10.954Z,52148.10
2022-11-02T17:45:40.803Z,52150.10
2022-11-02T17:48:11.033Z,52161.76
2022-11-02T17:50:41.234Z,52152.92
2022-11-02T17:53:12.499Z,52172.61
2022-11-02T17:55:42.545Z,52178.24
2022-11-02T17:58:13.923Z,52166.98
2022-11-02T18:00:43.937Z,52175.43
2022-11-02T18:03:15.546Z,52177.43
2022-11-02T18:05:49.432Z,52163.37
2022-11-02T18:08:20.794Z,52170.20
2022-11-02T18:10:51.980Z,52179.84
2022-11-02T18:13:22.446Z,52201.54
2022-11-02T18:15:52.149Z,52180.25
2022-11-02T18:18:22.066Z,52177.43
2022-11-02T18:20:51.924Z,52174.22
2022-11-02T18:23:21.677Z,52175.43
2022-11-02T18:25:53.934Z,52179.04
2022-11-02T18:28:26.554Z,52190.69
2022-11-02T18:30:56.771Z,52204.36
2022-11-02T18:33:26.457Z,52174.22
2022-11-02T18:35:56.232Z,52197.12
2022-11-02T18:38:26.063Z,52192.70
2022-11-02T18:40:55.715Z,52182.25
2022-11-02T18:43:25.489Z,52194.71
2022-11-02T18:45:55.193Z,52195.91
2022-11-02T18:48:24.870Z,52189.89
2022-11-02T18:50:54.969Z,52205.56
2022-11-02T18:53:24.830Z,52202.75
2022-11-02T18:55:54.652Z,52202.75
2022-11-02T18:58:24.907Z,52215.61
2022-11-02T19:00:55.173Z,52212.39
2022-11-02T19:03:25.000Z,52198.33
2022-11-02T19:06:16.444Z,52222.44
2022-11-02T19:09:09.516Z,52209.58
2022-11-02T19:11:39.833Z,52206.77
2022-11-02T19:14:09.933Z,52218.02
2022-11-02T19:16:40.250Z,52216.41
2022-11-02T19:19:10.248Z,52206.37
2022-11-02T19:21:40.605Z,52204.76
2022-11-02T19:24:11.020Z,52212.40
2022-11-02T19:26:41.021Z,52220.43
2022-11-02T19:29:10.953Z,52206.37
2022-11-02T19:31:41.014Z,52203.15
2022-11-02T19:34:10.935Z,52216.41
2022-11-02T19:36:41.338Z,52209.98
2022-11-02T19:39:11.176Z,52201.55
2022-11-02T19:41:40.951Z,52199.94
2022-11-02T19:44:10.654Z,52226.46
2022-11-02T19:46:40.603Z,52210.79
2022-11-02T19:49:10.499Z,52218.02
2022-11-02T19:51:40.484Z,52225.65
2022-11-02T19:54:10.314Z,52222.84
2022-11-02T19:56:40.044Z,52218.02
2022-11-02T19:59:09.738Z,52218.02
2022-11-02T20:01:40.402Z,52203.95
2022-11-02T20:04:10.418Z,52219.23
2022-11-02T20:06:40.716Z,52234.90
2022-11-02T20:09:14.038Z,52225.66
2022-11-02T20:11:45.339Z,52218.02
2022-11-02T20:14:15.868Z,52222.04
2022-11-02T20:16:58.421Z,52211.59
2022-11-02T20:19:28.656Z,52229.27
2022-11-02T20:21:58.617Z,52221.23
2022-11-02T20:24:28.462Z,52220.84
2022-11-02T20:27:03.078Z,52222.04
2022-11-02T20:29:32.940Z,52215.61
2022-11-02T20:32:03.132Z,52214.80
2022-11-02T20:34:33.006Z,52217.62
2022-11-02T20:37:03.015Z,52226.86
2022-11-02T20:39:32.936Z,52216.01
2022-11-02T20:42:03.043Z,52227.26
2022-11-02T20:44:32.976Z,52218.02
2022-11-02T20:47:03.036Z,52214.80
2022-11-02T20:52:23.351Z,52246.55
2022-11-02T20:54:53.136Z,52214.40
2022-11-02T20:57:23.648Z,52219.23
2022-11-02T20:59:53.905Z,52219.63
2022-11-02T21:02:24.908Z,52227.66
2022-11-02T21:04:55.307Z,52215.61
2022-11-02T21:07:24.982Z,52214.40
2022-11-02T21:09:54.677Z,52214.80
2022-11-02T21:12:50.374Z,52224.05
2022-11-02T21:15:20.404Z,52218.42
2022-11-02T21:17:50.320Z,52224.45
2022-11-02T21:20:33.562Z,52223.24
2022-11-02T21:23:04.876Z,52220.43
2022-11-02T21:25:35.135Z,52234.49
2022-11-02T21:28:05.088Z,52238.11
2022-11-02T21:30:35.121Z,52226.86
2022-11-02T21:33:05.296Z,52220.43
2022-11-02T21:35:35.551Z,52221.24
2022-11-02T21:38:07.868Z,52238.11
2022-11-02T21:40:38.687Z,52224.45
2022-11-02T21:43:08.859Z,52221.64
2022-11-02T21:45:38.991Z,52240.12
2022-11-02T21:48:08.925Z,52229.27
2022-11-02T21:50:38.826Z,52233.69
2022-11-02T21:53:08.863Z,52236.10
2022-11-02T21:55:38.968Z,52220.83
2022-11-02T21:58:08.961Z,52246.95
2022-11-02T22:00:58.609Z,52224.85
2022-11-02T22:03:29.111Z,52234.49
2022-11-02T22:05:59.849Z,52230.88
2022-11-02T22:08:42.379Z,52224.05
2022-11-02T22:11:12.592Z,52223.64
2022-11-02T22:13:42.677Z,52234.50
2022-11-02T22:16:17.111Z,52221.23
2022-11-02T22:18:47.087Z,52230.88
2022-11-02T22:21:16.866Z,52251.77
2022-11-02T22:23:46.684Z,52240.93
2022-11-02T22:26:16.798Z,52241.73
2022-11-02T22:28:46.530Z,52241.73
2022-11-02T22:31:16.914Z,52230.88
2022-11-02T22:33:46.700Z,52223.24
2022-11-02T22:36:17.163Z,52240.52
2022-11-02T22:38:51.770Z,52236.91
2022-11-02T22:41:22.058Z,52238.52
2022-11-02T22:43:52.409Z,52230.48
2022-11-02T22:46:22.298Z,52243.74
2022-11-02T22:48:53.003Z,52229.67
2022-11-02T22:51:23.051Z,52245.75
2022-11-02T22:53:52.773Z,52240.52
2022-11-02T22:56:23.707Z,52243.34
2022-11-02T22:58:53.502Z,52250.57
2022-11-02T23:01:23.747Z,52238.51
2022-11-02T23:03:54.266Z,52256.60
2022-11-02T23:06:23.967Z,52237.71
2022-11-02T23:08:54.109Z,52259.82
2022-11-02T23:11:25.521Z,52272.27
2022-11-02T23:13:56.692Z,52255.79
2022-11-02T23:16:27.662Z,52260.61
2022-11-02T23:19:18.863Z,52259.81
2022-11-02T23:22:09.444Z,52262.23
2022-11-02T23:24:56.974Z,52273.48
2022-11-02T23:27:26.805Z,52257.80
2022-11-02T23:30:14.472Z,52273.48
2022-11-02T23:32:44.347Z,52271.07
2022-11-02T23:35:31.785Z,52271.07
2022-11-02T23:38:05.425Z,52245.35
2022-11-02T23:40:35.300Z,52266.24
2022-11-02T23:43:06.521Z,52266.24
2022-11-02T23:45:36.633Z,52265.44
2022-11-02T23:48:08.372Z,52266.24
2022-11-02T23:50:55.771Z,52254.59
2022-11-02T23:53:43.439Z,52256.20
2022-11-02T23:56:33.853Z,52274.28
2022-11-02T23:59:10.013Z,52270.26
